Time;durP1;ratioP1;P1;durP2;ratioP2;P2;SDS_P1;SDS_P2;PMS_P1;PMS_P2;Temp;Humidity;BMP_temperature;BMP_pressure;BME280_temperature;BME280_humidity;BME280_pressure;Samples;Min_cycle;Max_cycle;Signal;HPM_P1;HPM_P2
2021/06/20 00:01:12;;;;;;;13.97;12.87;;;27.00;92.80;;;;;;5091644;28;20493;-66
2021/06/20 00:03:40;;;;;;;14.60;13.30;;;26.90;92.90;;;;;;5092657;28;20480;-66
2021/06/20 00:06:18;;;;;;;14.27;12.80;;;26.90;93.00;;;;;;5088851;28;20458;-66
2021/06/20 00:08:45;;;;;;;13.40;12.20;;;26.90;93.10;;;;;;5086323;28;20461;-66
2021/06/20 00:11:12;;;;;;;13.80;12.67;;;26.80;93.10;;;;;;5092676;28;20553;-66
2021/06/20 00:13:38;;;;;;;14.43;13.20;;;26.80;93.20;;;;;;5089657;28;20553;-66
2021/06/20 00:16:06;;;;;;;14.17;12.80;;;26.80;93.40;;;;;;5085256;28;20457;-66
2021/06/20 00:18:32;;;;;;;13.50;12.60;;;26.80;93.50;;;;;;5092684;28;20865;-66
2021/06/20 00:21:01;;;;;;;14.60;13.33;;;26.70;93.60;;;;;;5093120;28;20467;-66
2021/06/20 00:23:28;;;;;;;15.03;13.77;;;26.70;93.80;;;;;;5093157;28;20556;-66
2021/06/20 00:25:54;;;;;;;14.03;12.83;;;26.60;93.80;;;;;;5092800;28;20461;-66
2021/06/20 00:28:22;;;;;;;13.83;12.73;;;26.60;93.90;;;;;;5088761;28;20478;-66
2021/06/20 00:30:50;;;;;;;14.43;13.43;;;26.60;94.00;;;;;;5085518;28;20479;-66
2021/06/20 00:33:17;;;;;;;16.60;14.97;;;26.60;94.10;;;;;;5092737;28;20503;-66
2021/06/20 00:35:44;;;;;;;14.90;13.67;;;26.50;94.20;;;;;;5091395;28;20473;-67
2021/06/20 00:38:12;;;;;;;17.13;13.90;;;26.50;94.30;;;;;;5092648;28;20549;-66
2021/06/20 00:40:39;;;;;;;15.00;13.80;;;26.50;94.50;;;;;;5088042;28;20537;-66
2021/06/20 00:43:07;;;;;;;14.80;13.30;;;26.50;94.50;;;;;;5079211;28;20548;-66
2021/06/20 00:45:34;;;;;;;15.77;14.40;;;26.50;94.50;;;;;;5092503;28;20538;-66
2021/06/20 00:48:00;;;;;;;15.20;14.00;;;26.50;94.70;;;;;;5080715;28;20466;-66
2021/06/20 00:50:28;;;;;;;15.87;14.60;;;26.50;94.80;;;;;;5092714;28;20485;-66
2021/06/20 00:52:56;;;;;;;15.60;13.80;;;26.50;94.90;;;;;;5083191;28;20791;-65
2021/06/20 00:55:27;;;;;;;15.67;14.30;;;26.40;95.00;;;;;;5086341;28;20549;-66
2021/06/20 00:57:54;;;;;;;15.17;13.67;;;26.40;95.10;;;;;;5090781;28;20459;-67
2021/06/20 01:00:22;;;;;;;20.60;18.70;;;26.40;95.20;;;;;;5086879;28;20560;-67
2021/06/20 01:02:49;;;;;;;20.47;18.83;;;26.40;95.30;;;;;;5080678;28;20855;-67
2021/06/20 01:05:16;;;;;;;19.53;17.77;;;26.40;95.40;;;;;;5092563;28;20462;-67
2021/06/20 01:07:43;;;;;;;19.13;17.40;;;26.30;95.40;;;;;;5090216;28;20479;-67
2021/06/20 01:10:12;;;;;;;18.90;17.40;;;26.40;95.50;;;;;;5088216;28;20461;-67
2021/06/20 01:12:40;;;;;;;22.30;20.33;;;26.40;95.60;;;;;;5091789;28;20553;-67
2021/06/20 01:15:09;;;;;;;17.87;16.47;;;26.30;95.60;;;;;;5086076;28;20462;-67
2021/06/20 01:17:37;;;;;;;15.70;14.23;;;26.30;95.70;;;;;;5082907;28;20495;-67
2021/06/20 01:20:06;;;;;;;15.67;14.50;;;26.30;95.80;;;;;;5092528;28;20485;-67
2021/06/20 01:22:37;;;;;;;16.33;14.93;;;26.30;95.90;;;;;;5092170;28;20978;-67
2021/06/20 01:25:08;;;;;;;16.30;14.90;;;26.30;96.00;;;;;;5092111;28;21344;-67
2021/06/20 01:27:38;;;;;;;16.50;14.97;;;26.20;96.10;;;;;;5091809;28;20469;-67
2021/06/20 01:30:06;;;;;;;15.93;14.60;;;26.20;96.30;;;;;;5091996;28;20942;-67
2021/06/20 01:32:33;;;;;;;16.20;14.90;;;26.10;96.50;;;;;;5091931;28;20569;-67
2021/06/20 01:35:00;;;;;;;16.40;15.20;;;26.00;96.60;;;;;;5091567;28;20549;-66
2021/06/20 01:37:28;;;;;;;16.30;14.90;;;26.00;96.90;;;;;;5091913;28;20487;-66
2021/06/20 01:39:56;;;;;;;17.50;16.20;;;26.00;97.10;;;;;;5091558;28;20540;-66
2021/06/20 01:42:24;;;;;;;15.97;14.67;;;25.90;97.30;;;;;;5091073;28;20477;-67
2021/06/20 01:44:52;;;;;;;17.87;16.47;;;25.80;97.60;;;;;;5081948;28;20484;-66
2021/06/20 01:47:21;;;;;;;18.90;16.90;;;25.70;97.80;;;;;;5091824;28;20578;-67
2021/06/20 01:49:48;;;;;;;16.83;15.50;;;25.70;98.00;;;;;;5091338;28;20464;-67
2021/06/20 01:52:19;;;;;;;16.07;14.43;;;25.70;98.20;;;;;;5090951;28;20548;-67
2021/06/20 01:54:52;;;;;;;16.47;15.07;;;25.60;98.40;;;;;;5083754;28;20473;-67
2021/06/20 01:57:22;;;;;;;18.70;16.77;;;25.60;98.60;;;;;;5091976;28;20604;-65
2021/06/20 01:59:49;;;;;;;17.50;16.00;;;25.50;98.80;;;;;;5087534;28;20549;-66
2021/06/20 02:02:16;;;;;;;18.00;16.50;;;25.40;99.00;;;;;;5088111;28;20552;-66
2021/06/20 02:04:44;;;;;;;17.20;15.60;;;25.40;99.20;;;;;;5091504;28;20537;-67
2021/06/20 02:07:12;;;;;;;18.10;16.60;;;25.30;99.40;;;;;;5091675;28;20468;-66
2021/06/20 02:09:40;;;;;;;20.00;17.37;;;25.20;99.60;;;;;;5077357;28;20560;-67
2021/06/20 02:12:09;;;;;;;19.73;17.77;;;25.20;99.90;;;;;;5091320;28;20462;-67
2021/06/20 02:14:38;;;;;;;20.60;18.77;;;25.10;99.90;;;;;;5085511;28;20552;-65
2021/06/20 02:17:17;;;;;;;17.87;16.17;;;25.10;99.90;;;;;;5099962;27;20548;-65
2021/06/20 02:19:44;;;;;;;19.87;18.07;;;25.00;99.90;;;;;;5081740;28;20535;-66
2021/06/20 02:22:10;;;;;;;25.27;23.17;;;25.00;99.90;;;;;;5094649;28;20534;-67
2021/06/20 02:24:37;;;;;;;20.60;18.80;;;25.00;99.90;;;;;;5096163;28;20598;-66
2021/06/20 02:27:05;;;;;;;19.73;18.13;;;25.00;99.90;;;;;;5094532;28;20964;-67
2021/06/20 02:29:32;;;;;;;30.90;28.10;;;25.10;99.90;;;;;;5094920;28;20469;-66
2021/06/20 02:32:00;;;;;;;25.10;22.87;;;25.10;99.90;;;;;;5092975;28;20476;-66
2021/06/20 02:34:27;;;;;;;28.57;25.93;;;25.20;99.90;;;;;;5095592;28;21112;-66
2021/06/20 02:36:54;;;;;;;25.87;21.00;;;25.30;99.90;;;;;;5094421;28;20517;-67
2021/06/20 02:39:21;;;;;;;19.73;18.20;;;25.30;99.90;;;;;;5086505;28;20947;-67
2021/06/20 02:41:50;;;;;;;19.80;18.40;;;25.30;99.90;;;;;;5088693;28;20540;-67
2021/06/20 02:44:17;;;;;;;22.97;20.90;;;25.40;99.90;;;;;;5094340;28;20480;-65
2021/06/20 02:46:44;;;;;;;20.47;18.70;;;25.40;99.90;;;;;;5094705;28;20905;-66
2021/06/20 02:49:12;;;;;;;18.30;16.90;;;25.40;99.90;;;;;;5090207;28;21149;-66
2021/06/20 02:51:42;;;;;;;22.00;20.13;;;25.30;99.90;;;;;;5090151;28;20481;-66
2021/06/20 02:54:09;;;;;;;27.17;25.07;;;25.40;99.90;;;;;;5087673;28;20453;-66
2021/06/20 02:56:36;;;;;;;22.10;20.23;;;25.40;99.90;;;;;;5094307;28;20480;-67
2021/06/20 02:59:03;;;;;;;22.13;20.13;;;25.40;99.90;;;;;;5092144;28;20549;-66
2021/06/20 03:01:30;;;;;;;20.53;18.93;;;25.40;99.90;;;;;;5088761;28;20558;-67
2021/06/20 03:03:57;;;;;;;29.67;26.90;;;25.50;99.90;;;;;;5091634;28;21132;-67
2021/06/20 03:06:26;;;;;;;37.00;33.67;;;25.50;99.90;;;;;;5092144;28;20469;-66
2021/06/20 03:08:52;;;;;;;24.80;22.80;;;25.50;99.90;;;;;;5091812;28;20465;-67
2021/06/20 03:11:27;;;;;;;21.70;19.70;;;25.50;99.90;;;;;;5092160;28;20520;-67
2021/06/20 03:13:54;;;;;;;18.63;16.97;;;25.50;99.90;;;;;;5089704;28;20468;-66
2021/06/20 03:16:21;;;;;;;22.03;20.23;;;25.50;99.90;;;;;;5092676;28;20475;-65
2021/06/20 03:18:48;;;;;;;25.83;23.80;;;25.50;99.90;;;;;;5094596;28;20561;-66
2021/06/20 03:21:17;;;;;;;23.17;20.93;;;25.50;99.90;;;;;;5094336;28;20889;-66
2021/06/20 03:23:46;;;;;;;22.20;20.30;;;25.50;99.90;;;;;;5094456;28;20552;-67
2021/06/20 03:26:13;;;;;;;22.80;21.03;;;25.50;99.90;;;;;;5094004;28;20511;-66
2021/06/20 03:28:40;;;;;;;20.73;18.83;;;25.50;99.90;;;;;;5094140;28;20838;-65
2021/06/20 03:31:07;;;;;;;20.43;18.43;;;25.50;99.90;;;;;;5093954;28;20553;-65
2021/06/20 03:33:34;;;;;;;19.37;17.67;;;25.40;99.90;;;;;;5094194;28;20454;-65
2021/06/20 03:36:02;;;;;;;20.03;18.33;;;25.40;99.90;;;;;;5093483;28;20468;-66
2021/06/20 03:38:30;;;;;;;21.07;19.37;;;25.50;99.90;;;;;;5094049;28;20478;-66
2021/06/20 03:40:58;;;;;;;22.63;20.77;;;25.50;99.90;;;;;;5093663;28;20481;-66
2021/06/20 03:43:25;;;;;;;20.67;19.00;;;25.50;99.90;;;;;;5094115;28;20536;-66
2021/06/20 03:45:52;;;;;;;19.43;17.80;;;25.60;99.90;;;;;;5093200;28;20548;-65
2021/06/20 03:48:19;;;;;;;20.47;18.77;;;25.60;99.90;;;;;;5093696;28;20457;-65
2021/06/20 03:50:46;;;;;;;21.77;20.10;;;25.60;99.90;;;;;;5093308;28;20551;-65
2021/06/20 03:53:13;;;;;;;19.70;18.00;;;25.60;99.80;;;;;;5083337;28;20565;-66
2021/06/20 03:55:40;;;;;;;20.90;19.03;;;25.70;99.70;;;;;;5087024;28;20546;-66
2021/06/20 03:58:08;;;;;;;19.10;17.83;;;25.70;99.60;;;;;;5083492;28;20466;-66
2021/06/20 04:00:36;;;;;;;22.80;20.87;;;25.70;99.50;;;;;;5092652;28;20536;-67
2021/06/20 04:03:03;;;;;;;22.93;21.23;;;25.80;99.40;;;;;;5093078;28;20485;-67
2021/06/20 04:05:31;;;;;;;19.23;17.63;;;25.80;99.20;;;;;;5093400;28;20538;-66
2021/06/20 04:07:58;;;;;;;20.60;18.77;;;25.90;98.90;;;;;;5092299;28;20469;-66
2021/06/20 04:10:24;;;;;;;21.63;19.73;;;25.80;98.70;;;;;;5093266;28;20465;-65
2021/06/20 04:12:52;;;;;;;19.30;17.40;;;25.90;98.60;;;;;;5093261;28;20573;-67
2021/06/20 04:15:20;;;;;;;19.70;18.00;;;26.00;98.50;;;;;;5072936;28;20534;-66
2021/06/20 04:17:47;;;;;;;19.57;17.80;;;26.00;98.50;;;;;;5073236;28;20471;-66
2021/06/20 04:20:15;;;;;;;20.40;18.80;;;26.00;98.30;;;;;;5072896;28;20539;-66
2021/06/20 04:22:42;;;;;;;19.00;17.30;;;26.00;98.10;;;;;;5073177;28;20458;-66
2021/06/20 04:25:13;;;;;;;19.97;18.27;;;26.10;98.00;;;;;;5072822;28;20486;-67
2021/06/20 04:27:43;;;;;;;19.47;17.97;;;26.20;97.90;;;;;;5073006;28;20466;-67
2021/06/20 04:30:13;;;;;;;19.20;17.67;;;26.20;97.30;;;;;;5072589;28;20494;-67
2021/06/20 04:32:42;;;;;;;22.07;20.00;;;26.20;97.20;;;;;;5072986;28;20805;-66
2021/06/20 04:35:11;;;;;;;20.27;18.77;;;26.20;97.10;;;;;;5072572;28;20562;-67
2021/06/20 04:37:38;;;;;;;19.37;17.67;;;26.30;97.00;;;;;;5072984;28;20485;-66
2021/06/20 04:40:07;;;;;;;18.90;17.50;;;26.40;96.90;;;;;;5072796;28;20553;-67
2021/06/20 04:42:37;;;;;;;17.90;16.60;;;26.40;96.70;;;;;;5092696;28;20522;-66
2021/06/20 04:45:04;;;;;;;20.77;19.07;;;26.50;97.00;;;;;;5092783;28;20519;-66
2021/06/20 04:47:31;;;;;;;19.37;17.53;;;26.50;96.30;;;;;;5092912;28;20549;-67
2021/06/20 04:50:00;;;;;;;19.40;17.80;;;26.60;96.20;;;;;;5092641;28;20501;-67
2021/06/20 04:52:27;;;;;;;18.27;16.53;;;26.70;96.00;;;;;;5089094;28;20549;-66
2021/06/20 04:54:55;;;;;;;21.07;19.20;;;26.70;95.90;;;;;;5072736;28;20486;-66
2021/06/20 04:57:23;;;;;;;21.73;19.70;;;26.70;95.60;;;;;;5072243;28;20482;-67
2021/06/20 04:59:52;;;;;;;20.80;19.10;;;26.80;95.60;;;;;;5079372;28;20564;-67
2021/06/20 05:02:19;;;;;;;20.97;19.37;;;26.90;95.50;;;;;;5092382;28;20457;-66
2021/06/20 05:04:46;;;;;;;21.83;20.07;;;27.00;95.10;;;;;;5092764;28;20454;-67
2021/06/20 05:07:14;;;;;;;20.40;18.80;;;27.00;94.80;;;;;;5092528;28;20584;-67
2021/06/20 05:09:42;;;;;;;21.83;20.13;;;27.10;94.70;;;;;;5092684;28;20454;-66
2021/06/20 05:12:10;;;;;;;20.67;19.27;;;27.20;94.60;;;;;;5091981;28;20995;-67
2021/06/20 05:14:39;;;;;;;26.90;24.70;;;27.20;94.40;;;;;;5077963;28;20472;-67
2021/06/20 05:17:06;;;;;;;22.70;20.80;;;27.30;94.40;;;;;;5071909;28;20463;-67
2021/06/20 05:19:33;;;;;;;19.80;18.20;;;27.30;94.30;;;;;;5072592;28;20858;-66
2021/06/20 05:22:00;;;;;;;20.17;18.60;;;27.40;94.10;;;;;;5072217;28;20462;-66
2021/06/20 05:24:28;;;;;;;20.70;19.10;;;27.50;94.00;;;;;;5072382;28;20528;-66
2021/06/20 05:26:55;;;;;;;20.33;18.70;;;27.50;93.80;;;;;;5072558;28;20473;-65
2021/06/20 05:29:22;;;;;;;17.53;16.23;;;27.60;93.80;;;;;;5071979;28;20581;-65
2021/06/20 05:31:49;;;;;;;21.13;19.43;;;27.70;93.70;;;;;;5072355;28;20553;-66
2021/06/20 05:34:15;;;;;;;20.27;18.77;;;27.70;93.60;;;;;;5072043;28;20553;-66
2021/06/20 05:36:42;;;;;;;21.20;19.50;;;27.80;93.60;;;;;;5072322;28;20462;-66
2021/06/20 05:39:09;;;;;;;21.23;19.50;;;27.80;93.40;;;;;;5071847;28;20897;-66
2021/06/20 05:41:37;;;;;;;21.70;20.10;;;27.90;93.30;;;;;;5085199;28;20536;-67
2021/06/20 05:44:05;;;;;;;20.73;18.97;;;27.90;93.20;;;;;;5092018;28;20552;-66
2021/06/20 05:46:32;;;;;;;21.83;20.13;;;28.00;93.20;;;;;;5092441;28;20955;-66
2021/06/20 05:48:59;;;;;;;22.00;20.30;;;28.00;93.10;;;;;;5092329;28;20480;-66
2021/06/20 05:51:26;;;;;;;20.97;19.47;;;28.10;93.10;;;;;;5091992;28;20453;-65
2021/06/20 05:53:53;;;;;;;18.90;17.50;;;28.10;93.00;;;;;;5078284;28;20549;-65
2021/06/20 05:56:20;;;;;;;20.80;19.30;;;28.20;92.90;;;;;;5075655;28;20549;-66
2021/06/20 05:58:48;;;;;;;20.80;19.40;;;28.30;92.80;;;;;;5084464;28;20580;-66
2021/06/20 06:01:15;;;;;;;22.73;21.13;;;28.40;92.70;;;;;;5095387;28;20472;-66
2021/06/20 06:03:42;;;;;;;21.27;19.30;;;28.40;92.60;;;;;;5095920;28;20472;-66
2021/06/20 06:06:09;;;;;;;21.70;20.10;;;28.50;92.50;;;;;;5095545;28;20488;-66
2021/06/20 06:08:36;;;;;;;20.77;19.17;;;28.60;92.30;;;;;;5096199;28;20471;-65
2021/06/20 06:11:03;;;;;;;21.50;19.80;;;28.60;92.20;;;;;;5095446;28;20560;-66
2021/06/20 06:13:30;;;;;;;20.50;19.10;;;28.60;92.10;;;;;;5090427;28;20804;-66
2021/06/20 06:15:58;;;;;;;20.77;19.13;;;28.70;92.00;;;;;;5075723;28;20466;-66
2021/06/20 06:18:25;;;;;;;21.13;19.57;;;28.70;92.00;;;;;;5075019;28;20466;-66
2021/06/20 06:20:51;;;;;;;19.97;18.67;;;28.80;92.40;;;;;;5075576;28;20454;-66
2021/06/20 06:23:18;;;;;;;20.73;19.13;;;28.90;91.90;;;;;;5075026;28;20470;-66
2021/06/20 06:25:45;;;;;;;23.00;21.10;;;29.00;91.90;;;;;;5075548;28;20458;-66
2021/06/20 06:28:12;;;;;;;22.07;20.57;;;29.10;91.70;;;;;;5074791;28;20474;-66
2021/06/20 06:30:39;;;;;;;20.40;18.90;;;29.30;92.00;;;;;;5075655;28;20545;-66
2021/06/20 06:33:07;;;;;;;21.33;19.67;;;29.50;91.20;;;;;;5074823;28;20470;-66
2021/06/20 06:35:34;;;;;;;20.70;19.10;;;29.60;90.80;;;;;;5075165;28;20956;-66
2021/06/20 06:38:01;;;;;;;20.93;19.40;;;29.70;90.50;;;;;;5075169;28;20492;-66
2021/06/20 06:40:29;;;;;;;22.90;21.23;;;29.90;90.30;;;;;;5078134;28;20457;-66
2021/06/20 06:42:56;;;;;;;22.97;21.37;;;30.00;90.10;;;;;;5090545;28;21485;-66
2021/06/20 06:45:23;;;;;;;20.37;18.90;;;30.10;90.00;;;;;;5094946;28;20870;-65
2021/06/20 06:47:50;;;;;;;21.13;19.63;;;30.20;89.80;;;;;;5095235;28;20465;-66
2021/06/20 06:50:19;;;;;;;20.17;18.77;;;30.30;89.40;;;;;;5094923;28;20978;-67
2021/06/20 06:52:46;;;;;;;22.17;20.40;;;30.40;89.90;;;;;;5088691;28;20474;-66
2021/06/20 06:55:14;;;;;;;22.47;20.80;;;30.40;88.70;;;;;;5074534;28;20469;-66
2021/06/20 06:57:41;;;;;;;22.27;20.77;;;30.50;88.50;;;;;;5074803;28;20481;-66
2021/06/20 07:00:10;;;;;;;23.17;21.47;;;30.50;88.40;;;;;;5083551;28;20965;-67
2021/06/20 07:02:37;;;;;;;25.03;23.23;;;30.50;88.20;;;;;;5094911;28;20542;-66
2021/06/20 07:05:05;;;;;;;23.83;22.10;;;30.50;88.30;;;;;;5094606;28;20465;-66
2021/06/20 07:07:34;;;;;;;23.43;21.57;;;30.50;88.40;;;;;;5094453;28;20461;-67
2021/06/20 07:10:01;;;;;;;22.17;20.53;;;30.50;88.20;;;;;;5094947;28;20477;-66
2021/06/20 07:12:29;;;;;;;22.57;20.87;;;30.50;88.00;;;;;;5094221;28;20516;-67
2021/06/20 07:14:57;;;;;;;24.47;22.53;;;30.50;87.80;;;;;;5094503;28;21014;-67
2021/06/20 07:17:24;;;;;;;24.53;22.67;;;30.50;87.80;;;;;;5094110;28;20560;-66
2021/06/20 07:19:51;;;;;;;25.00;23.00;;;30.50;87.70;;;;;;5094698;28;20810;-67
2021/06/20 07:22:18;;;;;;;24.43;22.70;;;30.50;87.70;;;;;;5094396;28;20473;-67
2021/06/20 07:24:46;;;;;;;24.70;23.00;;;30.50;87.60;;;;;;5094486;28;20472;-67
2021/06/20 07:27:13;;;;;;;22.43;20.93;;;30.60;87.80;;;;;;5094110;28;20465;-66
2021/06/20 07:29:42;;;;;;;23.10;21.30;;;30.60;87.80;;;;;;5094620;28;20523;-67
2021/06/20 07:32:09;;;;;;;22.90;21.13;;;30.60;87.30;;;;;;5094469;28;20472;-67
2021/06/20 07:34:36;;;;;;;22.77;21.27;;;30.60;87.10;;;;;;5094292;28;20467;-67
2021/06/20 07:37:03;;;;;;;22.70;21.00;;;30.70;87.00;;;;;;5094075;28;20468;-67
2021/06/20 07:39:31;;;;;;;23.13;21.33;;;30.70;87.00;;;;;;5093903;28;20989;-67
2021/06/20 07:41:59;;;;;;;22.90;21.27;;;30.80;87.00;;;;;;5094466;28;20806;-66
2021/06/20 07:44:26;;;;;;;23.70;22.00;;;30.80;86.50;;;;;;5093673;28;20556;-66
2021/06/20 07:46:53;;;;;;;22.37;20.87;;;30.90;85.90;;;;;;5094233;28;20869;-67
2021/06/20 07:49:20;;;;;;;22.93;21.40;;;31.00;85.20;;;;;;5093505;28;20465;-67
2021/06/20 07:51:47;;;;;;;24.73;22.63;;;31.00;85.20;;;;;;5094124;28;20457;-66
2021/06/20 07:54:15;;;;;;;23.57;22.03;;;31.00;84.90;;;;;;5093596;28;20479;-66
2021/06/20 07:56:42;;;;;;;23.90;21.90;;;31.00;84.20;;;;;;5093942;28;20526;-66
2021/06/20 07:59:10;;;;;;;24.33;22.60;;;31.00;84.30;;;;;;5093541;28;20836;-67
2021/06/20 08:01:40;;;;;;;24.87;22.97;;;30.90;84.70;;;;;;5093504;28;20454;-66
2021/06/20 08:04:07;;;;;;;25.90;23.77;;;30.90;85.10;;;;;;5093949;28;20555;-67
2021/06/20 08:06:34;;;;;;;24.77;23.07;;;30.90;85.20;;;;;;5092347;28;21022;-66
2021/06/20 08:09:00;;;;;;;25.80;23.80;;;30.90;85.50;;;;;;5093386;28;21008;-66
2021/06/20 08:11:28;;;;;;;24.60;22.70;;;30.90;85.90;;;;;;5091382;28;20473;-66
2021/06/20 08:13:56;;;;;;;24.43;22.63;;;31.00;86.00;;;;;;5092953;28;20469;-67
2021/06/20 08:16:25;;;;;;;24.70;22.93;;;31.00;85.30;;;;;;5092385;28;20531;-67
2021/06/20 08:18:52;;;;;;;26.00;24.13;;;31.00;85.50;;;;;;5093270;28;20468;-66
2021/06/20 08:21:19;;;;;;;26.13;24.30;;;31.00;85.20;;;;;;5093138;28;20465;-67
2021/06/20 08:23:46;;;;;;;25.50;23.60;;;31.10;85.20;;;;;;5093485;28;20798;-66
2021/06/20 08:26:13;;;;;;;26.70;24.80;;;31.10;85.20;;;;;;5093551;28;20472;-66
2021/06/20 08:28:40;;;;;;;24.30;22.80;;;31.10;84.80;;;;;;5092808;28;20468;-67
2021/06/20 08:31:07;;;;;;;25.00;23.17;;;31.10;84.80;;;;;;5093277;28;20540;-67
2021/06/20 08:33:35;;;;;;;24.57;22.73;;;31.10;84.70;;;;;;5092759;28;20473;-67
2021/06/20 08:36:02;;;;;;;28.17;26.13;;;31.20;85.00;;;;;;5092997;28;20468;-67
2021/06/20 08:38:29;;;;;;;27.90;25.80;;;31.10;85.50;;;;;;5092463;28;20520;-67
2021/06/20 08:40:57;;;;;;;25.83;23.93;;;31.10;85.90;;;;;;5091180;28;20471;-66
2021/06/20 08:43:24;;;;;;;26.83;25.03;;;31.10;85.90;;;;;;5092608;28;20544;-66
2021/06/20 08:45:52;;;;;;;27.70;25.60;;;31.20;85.80;;;;;;5093298;28;20544;-66
2021/06/20 08:48:19;;;;;;;26.13;24.27;;;31.30;85.60;;;;;;5092515;28;20480;-66
2021/06/20 08:50:50;;;;;;;27.40;25.40;;;31.30;85.10;;;;;;5093002;28;20504;-66
2021/06/20 08:53:18;;;;;;;27.80;25.97;;;31.30;85.90;;;;;;5092910;28;20522;-65
2021/06/20 08:55:45;;;;;;;24.40;22.60;;;31.40;84.30;;;;;;5092722;28;20457;-66
2021/06/20 08:58:20;;;;;;;24.30;22.70;;;31.40;82.70;;;;;;5092683;28;20947;-65
2021/06/20 09:00:47;;;;;;;29.97;27.73;;;31.50;81.60;;;;;;5092692;28;20457;-67
2021/06/20 09:03:14;;;;;;;28.67;26.70;;;31.60;81.40;;;;;;5092634;28;20475;-67
2021/06/20 09:05:41;;;;;;;31.63;29.43;;;31.70;81.00;;;;;;5092346;28;20479;-67
2021/06/20 09:08:18;;;;;;;27.90;25.90;;;31.80;81.50;;;;;;5092908;28;20484;-67
2021/06/20 09:10:45;;;;;;;26.93;24.83;;;31.90;80.80;;;;;;5092241;28;20461;-67
2021/06/20 09:13:13;;;;;;;23.77;22.07;;;31.90;80.30;;;;;;5092581;28;20469;-66
2021/06/20 09:15:40;;;;;;;24.07;22.27;;;32.00;79.60;;;;;;5092280;28;20476;-67
2021/06/20 09:18:10;;;;;;;23.50;21.70;;;32.00;79.10;;;;;;5092550;28;20469;-67
2021/06/20 09:20:39;;;;;;;23.13;21.57;;;32.00;78.00;;;;;;5092323;28;20956;-68
2021/06/20 09:23:08;;;;;;;21.20;19.70;;;32.10;76.90;;;;;;5092529;28;20997;-66
2021/06/20 09:25:37;;;;;;;20.23;18.83;;;32.10;76.30;;;;;;5092132;28;20465;-66
2021/06/20 09:28:05;;;;;;;21.77;19.93;;;32.10;76.00;;;;;;5094694;28;20469;-68
2021/06/20 09:30:35;;;;;;;21.50;19.90;;;32.30;76.90;;;;;;5095992;28;20475;-66
2021/06/20 09:33:03;;;;;;;20.20;18.80;;;32.30;75.90;;;;;;5096761;28;20465;-66
2021/06/20 09:35:32;;;;;;;21.37;19.87;;;32.30;75.70;;;;;;5096245;28;20540;-66
2021/06/20 09:37:59;;;;;;;18.53;17.23;;;32.30;75.20;;;;;;5096597;28;20461;-67
2021/06/20 09:40:28;;;;;;;17.40;15.80;;;32.30;74.60;;;;;;5096347;28;20476;-66
2021/06/20 09:42:56;;;;;;;15.70;14.60;;;32.30;74.10;;;;;;5096549;28;20798;-66
2021/06/20 09:45:28;;;;;;;17.60;15.97;;;32.30;73.40;;;;;;5096438;28;20480;-66
2021/06/20 09:47:55;;;;;;;17.47;16.13;;;32.20;72.50;;;;;;5096392;28;20483;-67
2021/06/20 09:50:37;;;;;;;15.90;14.90;;;32.30;72.70;;;;;;5096352;28;20472;-66
2021/06/20 09:53:04;;;;;;;15.70;14.50;;;32.30;72.70;;;;;;5096029;28;20934;-66
2021/06/20 09:55:31;;;;;;;16.17;14.97;;;32.30;72.60;;;;;;5096432;28;20479;-66
2021/06/20 09:58:02;;;;;;;13.77;12.67;;;32.30;72.30;;;;;;5095827;28;20875;-66
2021/06/20 10:00:37;;;;;;;14.13;12.83;;;32.30;71.60;;;;;;5096149;28;20518;-66
2021/06/20 10:03:05;;;;;;;15.27;13.90;;;32.40;71.70;;;;;;5095575;28;20471;-66
2021/06/20 10:05:32;;;;;;;13.97;12.70;;;32.40;71.50;;;;;;5096403;28;20468;-66
2021/06/20 10:08:00;;;;;;;14.47;13.37;;;32.50;71.20;;;;;;5095647;28;20469;-67
2021/06/20 10:10:27;;;;;;;14.47;13.37;;;32.50;70.30;;;;;;5095919;28;20959;-67
2021/06/20 10:12:54;;;;;;;13.20;12.40;;;32.60;70.50;;;;;;5095454;28;20464;-66
2021/06/20 10:15:23;;;;;;;14.57;13.47;;;32.60;70.70;;;;;;5096122;28;20467;-67
2021/06/20 10:17:57;;;;;;;17.53;16.03;;;32.60;71.00;;;;;;5095081;28;20462;-66
2021/06/20 10:20:31;;;;;;;16.10;14.60;;;32.60;71.00;;;;;;5095820;28;20522;-66
2021/06/20 10:22:58;;;;;;;15.10;14.00;;;32.60;71.00;;;;;;5095307;28;20466;-67
2021/06/20 10:25:28;;;;;;;14.43;13.20;;;32.60;70.80;;;;;;5095670;28;20465;-67
2021/06/20 10:28:04;;;;;;;13.50;12.60;;;32.60;71.10;;;;;;5094895;28;20476;-67
2021/06/20 10:30:36;;;;;;;13.20;12.10;;;32.60;70.70;;;;;;5084776;28;20808;-66
2021/06/20 10:33:07;;;;;;;13.97;12.50;;;32.60;71.00;;;;;;5074759;28;20457;-67
2021/06/20 10:35:34;;;;;;;14.30;12.73;;;32.60;71.10;;;;;;5075345;28;20484;-66
2021/06/20 10:38:01;;;;;;;13.93;12.93;;;32.60;70.90;;;;;;5074561;28;20472;-67
2021/06/20 10:40:31;;;;;;;15.80;14.20;;;32.60;70.60;;;;;;5074524;28;20470;-67
2021/06/20 10:43:00;;;;;;;14.07;13.07;;;32.70;70.80;;;;;;5074584;28;20909;-67
2021/06/20 10:45:29;;;;;;;14.63;13.50;;;32.70;70.50;;;;;;5074968;28;21023;-66
2021/06/20 10:47:59;;;;;;;14.17;13.07;;;32.60;70.20;;;;;;5074528;28;20472;-67
2021/06/20 10:50:37;;;;;;;17.77;16.27;;;32.60;70.10;;;;;;5075159;28;20860;-67
2021/06/20 10:53:04;;;;;;;17.30;16.00;;;32.60;70.60;;;;;;5074359;28;20462;-67
2021/06/20 10:55:40;;;;;;;16.20;15.10;;;32.60;70.80;;;;;;5074967;28;21010;-66
2021/06/20 10:58:25;;;;;;;23.03;15.43;;;32.60;70.70;;;;;;5074461;28;20982;-66
2021/06/20 11:00:54;;;;;;;18.37;16.57;;;32.60;71.10;;;;;;5089655;28;20930;-67
2021/06/20 11:03:26;;;;;;;16.20;14.70;;;32.60;71.10;;;;;;5094972;28;20639;-67
2021/06/20 11:05:55;;;;;;;15.47;14.30;;;32.60;70.60;;;;;;5094579;28;20465;-67
2021/06/20 11:08:41;;;;;;;16.43;14.83;;;32.60;70.30;;;;;;5094925;28;20806;-67
2021/06/20 11:11:11;;;;;;;18.27;16.37;;;32.60;70.70;;;;;;5076686;28;20462;-67
2021/06/20 11:13:39;;;;;;;18.60;14.73;;;32.60;70.80;;;;;;5080893;28;20507;-66
2021/06/20 11:16:08;;;;;;;16.43;12.87;;;32.60;70.70;;;;;;5094348;28;20463;-66
2021/06/20 11:18:36;;;;;;;14.17;12.57;;;32.60;69.40;;;;;;5094640;28;20470;-67
2021/06/20 11:21:03;;;;;;;15.07;11.80;;;32.70;68.60;;;;;;5094067;28;20475;-67
2021/06/20 11:23:31;;;;;;;13.53;12.47;;;32.80;68.00;;;;;;5094726;28;20465;-67
2021/06/20 11:26:00;;;;;;;15.10;13.00;;;32.80;68.00;;;;;;5094463;28;20461;-67
2021/06/20 11:28:27;;;;;;;12.03;10.93;;;32.80;68.00;;;;;;5094487;28;20476;-66
2021/06/20 11:31:05;;;;;;;12.53;11.33;;;32.80;68.10;;;;;;5094129;28;20469;-66
2021/06/20 11:33:32;;;;;;;15.23;12.07;;;32.70;68.20;;;;;;5094479;28;20476;-66
2021/06/20 11:36:00;;;;;;;13.37;12.10;;;32.70;68.60;;;;;;5094222;28;20832;-67
2021/06/20 11:38:32;;;;;;;14.80;13.20;;;32.70;68.70;;;;;;5094235;28;20465;-67
2021/06/20 11:41:19;;;;;;;13.63;12.33;;;32.80;69.00;;;;;;5093788;28;20501;-67
2021/06/20 11:44:07;;;;;;;15.57;14.10;;;32.70;68.70;;;;;;5094214;28;20541;-67
2021/06/20 11:46:35;;;;;;;14.93;13.43;;;32.60;69.00;;;;;;5090995;28;20454;-68
2021/06/20 11:49:04;;;;;;;14.17;12.97;;;32.60;69.00;;;;;;5094177;28;20465;-67
2021/06/20 11:51:38;;;;;;;14.37;12.97;;;32.50;69.20;;;;;;5092579;28;20955;-67
2021/06/20 11:54:08;;;;;;;14.77;13.27;;;32.50;69.70;;;;;;5094283;28;20532;-67
2021/06/20 11:56:35;;;;;;;13.37;12.07;;;32.40;69.70;;;;;;5093582;28;20476;-68
2021/06/20 11:59:02;;;;;;;14.53;12.70;;;32.30;69.70;;;;;;5093918;28;20458;-67
2021/06/20 12:01:42;;;;;;;14.77;11.97;;;32.30;69.80;;;;;;5089146;28;20468;-68
2021/06/20 12:04:10;;;;;;;15.27;12.17;;;32.30;69.80;;;;;;5093903;28;20978;-66
2021/06/20 12:06:39;;;;;;;12.90;11.53;;;32.20;69.60;;;;;;5093005;28;20519;-67
2021/06/20 12:09:08;;;;;;;14.43;13.00;;;32.30;69.50;;;;;;5093577;28;20466;-66
2021/06/20 12:11:36;;;;;;;12.13;11.13;;;32.30;69.30;;;;;;5093011;28;20481;-67
2021/06/20 12:14:04;;;;;;;13.93;12.57;;;32.20;68.80;;;;;;5093724;28;20471;-68
2021/06/20 12:16:31;;;;;;;14.03;12.73;;;32.20;68.50;;;;;;5093024;28;20488;-67
2021/06/20 12:18:58;;;;;;;12.47;11.17;;;32.20;68.20;;;;;;5093521;28;20798;-68
2021/06/20 12:21:27;;;;;;;16.50;14.90;;;32.20;68.60;;;;;;5093016;28;20552;-66
2021/06/20 12:23:57;;;;;;;13.57;12.23;;;32.20;68.20;;;;;;5093385;28;20467;-68
2021/06/20 12:26:28;;;;;;;11.20;10.20;;;32.20;67.70;;;;;;5093554;28;20461;-67
2021/06/20 12:28:55;;;;;;;10.90;10.07;;;32.20;67.70;;;;;;5093035;28;21026;-67
2021/06/20 12:31:23;;;;;;;10.97;9.90;;;32.20;67.60;;;;;;5093343;28;20541;-66
2021/06/20 12:34:00;;;;;;;10.90;9.90;;;32.10;67.70;;;;;;5093028;28;20885;-66